Time;durP1;ratioP1;P1;durP2;ratioP2;P2;SDS_P1;SDS_P2;PMS_P1;PMS_P2;Temp;Humidity;BMP_temperature;BMP_pressure;BME280_temperature;BME280_humidity;BME280_pressure;Samples;Min_cycle;Max_cycle;Signal;HPM_P1;HPM_P2
2022/05/11 00:00:16;;;;;;;14.82;6.95;;;11.10;84.40;;;;;;10470697;28;20066;-88
2022/05/11 00:05:16;;;;;;;14.73;7.97;;;11.00;84.60;;;;;;10489344;28;20067;-86
2022/05/11 00:10:17;;;;;;;15.77;7.90;;;10.90;85.10;;;;;;10488450;28;20128;-86
2022/05/11 00:15:22;;;;;;;16.97;8.23;;;10.80;85.50;;;;;;10489017;28;20020;-88
2022/05/11 00:20:23;;;;;;;16.10;8.40;;;10.70;87.00;;;;;;10471553;28;20056;-86
2022/05/11 00:25:25;;;;;;;15.50;7.43;;;10.60;87.50;;;;;;10489052;28;20078;-89
2022/05/11 00:30:28;;;;;;;18.97;8.90;;;10.50;87.60;;;;;;10488265;28;20418;-87
2022/05/11 00:35:33;;;;;;;19.50;9.87;;;10.50;88.30;;;;;;10488226;28;20028;-88
2022/05/11 00:40:43;;;;;;;16.53;8.87;;;10.60;88.80;;;;;;10470760;28;20098;-86
2022/05/11 00:45:50;;;;;;;16.43;8.57;;;10.60;89.40;;;;;;10487764;28;20024;-85
2022/05/11 00:50:52;;;;;;;20.17;10.03;;;10.60;90.10;;;;;;10437049;28;20044;-87
2022/05/11 00:55:59;;;;;;;16.80;9.50;;;10.60;90.20;;;;;;10491517;28;20028;-88
2022/05/11 01:01:00;;;;;;;19.73;9.60;;;10.60;90.60;;;;;;10495748;28;20039;-86
2022/05/11 01:06:01;;;;;;;18.83;10.50;;;10.60;91.00;;;;;;10493766;28;20028;-86
2022/05/11 01:11:03;;;;;;;21.25;10.48;;;10.50;91.30;;;;;;10477860;28;20043;-86
2022/05/11 01:16:04;;;;;;;20.90;10.43;;;10.50;91.80;;;;;;10483394;28;20549;-87
2022/05/11 01:21:07;;;;;;;21.53;11.87;;;10.50;92.60;;;;;;10477103;28;20077;-87
2022/05/11 01:26:07;;;;;;;21.10;11.60;;;10.50;93.10;;;;;;10494828;28;20407;-86
2022/05/11 01:31:10;;;;;;;24.73;13.37;;;10.50;94.20;;;;;;10495996;28;20039;-87
2022/05/11 01:36:30;;;;;;;22.80;11.70;;;10.30;95.40;;;;;;10480767;28;20031;-87
2022/05/11 01:41:32;;;;;;;19.83;11.80;;;10.20;96.70;;;;;;10495061;28;20033;-88
2022/05/11 01:46:34;;;;;;;23.83;12.87;;;10.20;97.10;;;;;;10495250;28;20037;-86
2022/05/11 01:51:34;;;;;;;24.50;12.43;;;10.20;98.10;;;;;;10494039;28;20185;-87
2022/05/11 01:56:35;;;;;;;26.73;13.73;;;10.20;98.60;;;;;;10493768;28;20031;-87
2022/05/11 02:01:39;;;;;;;28.17;13.17;;;10.20;99.60;;;;;;10494749;28;20044;-87
2022/05/11 02:11:59;;;;;;;24.47;14.63;;;10.20;99.90;;;;;;10494030;28;20049;-87
2022/05/11 02:17:00;;;;;;;23.43;13.00;;;10.30;99.90;;;;;;10492822;28;20032;-87
2022/05/11 02:22:00;;;;;;;23.27;14.03;;;10.30;99.90;;;;;;10475487;28;20023;-89
2022/05/11 02:27:03;;;;;;;24.90;14.07;;;10.30;99.90;;;;;;10493733;28;20072;-87
2022/05/11 02:32:04;;;;;;;21.63;13.53;;;10.40;99.90;;;;;;10493114;28;20048;-88
2022/05/11 02:37:04;;;;;;;24.75;13.90;;;10.40;99.90;;;;;;10477932;28;20047;-87
2022/05/11 02:42:05;;;;;;;28.63;14.57;;;10.40;99.90;;;;;;10454832;28;20091;-89
2022/05/11 02:47:06;;;;;;;29.17;16.52;;;10.50;99.90;;;;;;10488748;28;20033;-88
2022/05/11 02:52:07;;;;;;;26.27;15.73;;;10.50;99.90;;;;;;10474386;28;20143;-89
2022/05/11 02:57:07;;;;;;;28.35;14.60;;;10.40;99.90;;;;;;10492231;28;20032;-86
2022/05/11 03:02:09;;;;;;;25.20;15.17;;;10.40;99.90;;;;;;10491335;28;20036;-87
2022/05/11 03:07:09;;;;;;;27.07;13.50;;;10.40;99.90;;;;;;10472740;28;20055;-87
2022/05/11 03:12:11;;;;;;;22.87;14.03;;;10.40;99.90;;;;;;10491393;28;20119;-86
2022/05/11 03:17:12;;;;;;;26.20;15.52;;;10.50;99.90;;;;;;10472294;28;20136;-88
2022/05/11 03:22:13;;;;;;;28.40;14.90;;;10.50;99.90;;;;;;10490477;28;20077;-87
2022/05/11 03:27:13;;;;;;;25.45;13.77;;;10.60;99.90;;;;;;10474281;28;20137;-88
2022/05/11 03:37:33;;;;;;;24.08;14.05;;;10.80;99.90;;;;;;10489952;28;20036;-87
2022/05/11 03:42:36;;;;;;;25.35;14.50;;;10.80;99.90;;;;;;10490551;28;20029;-87
2022/05/11 03:47:37;;;;;;;27.65;14.52;;;10.90;99.90;;;;;;10472436;28;20044;-88
2022/05/11 03:52:37;;;;;;;23.67;13.98;;;11.00;99.90;;;;;;10489278;28;20045;-86
2022/05/11 03:57:39;;;;;;;21.52;13.25;;;11.10;99.90;;;;;;10489422;28;20503;-86
2022/05/11 04:02:41;;;;;;;27.27;16.00;;;11.30;99.90;;;;;;10470438;28;20025;-86
2022/05/11 04:07:43;;;;;;;23.38;15.65;;;11.40;99.90;;;;;;10452149;28;20025;-88
2022/05/11 04:12:46;;;;;;;26.13;15.93;;;11.50;99.90;;;;;;10465122;28;20497;-89
2022/05/11 04:17:47;;;;;;;25.40;14.38;;;11.60;99.90;;;;;;10468072;28;20032;-90
2022/05/11 04:22:48;;;;;;;27.48;15.30;;;11.70;99.90;;;;;;10454534;28;20028;-89
2022/05/11 04:27:48;;;;;;;25.02;15.23;;;11.70;99.90;;;;;;10467572;28;20056;-91
2022/05/11 04:32:49;;;;;;;23.60;14.35;;;11.80;99.90;;;;;;10466135;28;20048;-89
2022/05/11 04:37:49;;;;;;;23.50;14.48;;;11.90;99.90;;;;;;10458244;28;20380;-90
2022/05/11 04:42:51;;;;;;;24.55;14.90;;;12.10;99.90;;;;;;10469708;28;20107;-88
2022/05/11 04:47:51;;;;;;;30.15;15.77;;;12.30;99.90;;;;;;10463479;28;20040;-87
2022/05/11 04:52:52;;;;;;;26.30;14.52;;;12.40;99.90;;;;;;10477368;28;20028;-88
2022/05/11 04:57:53;;;;;;;30.50;17.02;;;12.50;99.90;;;;;;10466729;28;20032;-88
2022/05/11 05:02:53;;;;;;;26.00;15.75;;;12.50;99.90;;;;;;10485420;28;20024;-87
2022/05/11 05:07:54;;;;;;;33.03;17.08;;;12.60;99.90;;;;;;10486511;28;20420;-86
2022/05/11 05:12:54;;;;;;;27.25;16.35;;;12.70;99.90;;;;;;10485011;28;20503;-87
2022/05/11 05:17:55;;;;;;;31.25;16.30;;;12.90;99.90;;;;;;10467573;28;20028;-87
2022/05/11 05:22:56;;;;;;;27.58;16.35;;;13.20;99.90;;;;;;10485649;28;20032;-85
2022/05/11 05:31:04;;;;;;;25.95;16.42;;;13.40;99.90;;;;;;10486353;28;20503;-86
2022/05/11 05:33:18;;;;;;;30.45;15.88;;;13.60;99.90;;;;;;10485485;28;20040;-86
2022/05/11 05:38:19;;;;;;;23.75;14.75;;;13.70;99.90;;;;;;10486168;28;20464;-87
2022/05/11 05:43:21;;;;;;;24.73;14.95;;;13.80;99.90;;;;;;10472511;28;20036;-88
2022/05/11 05:48:23;;;;;;;28.23;15.15;;;14.00;99.90;;;;;;10475644;28;20028;-88
2022/05/11 05:53:24;;;;;;;23.23;13.65;;;14.30;99.90;;;;;;10493170;28;20537;-90
2022/05/11 05:58:25;;;;;;;21.63;12.82;;;14.60;99.90;;;;;;10492927;28;20061;-87
2022/05/11 06:03:31;;;;;;;21.73;12.25;;;15.00;99.90;;;;;;10474344;28;20036;-88
2022/05/11 06:08:32;;;;;;;22.27;12.43;;;15.40;99.90;;;;;;10492275;28;20036;-88
2022/05/11 06:13:33;;;;;;;23.35;12.75;;;15.60;99.80;;;;;;10492697;28;20029;-88
2022/05/11 06:18:35;;;;;;;19.58;10.35;;;15.80;98.30;;;;;;10493076;28;20040;-87
2022/05/11 06:23:36;;;;;;;14.85;8.20;;;16.10;96.90;;;;;;10491253;28;20020;-89
2022/05/11 06:28:40;;;;;;;15.05;7.47;;;16.40;95.70;;;;;;10473758;28;20056;-88
2022/05/11 06:33:46;;;;;;;14.65;7.60;;;16.80;93.40;;;;;;10490253;28;20703;-88
2022/05/11 06:38:47;;;;;;;14.50;6.15;;;17.20;92.20;;;;;;10473783;28;20070;-87
2022/05/11 06:43:49;;;;;;;13.52;6.45;;;17.70;86.90;;;;;;10472463;28;20028;-89
2022/05/11 06:48:49;;;;;;;14.68;6.25;;;18.10;82.00;;;;;;10473739;28;20502;-85
2022/05/11 06:59:22;;;;;;;12.45;5.45;;;18.60;79.20;;;;;;10486916;28;20033;-86
2022/05/11 07:04:22;;;;;;;13.13;6.22;;;19.10;78.30;;;;;;10472549;28;20043;-87
2022/05/11 07:09:26;;;;;;;10.32;5.07;;;19.80;76.40;;;;;;10490956;28;20032;-87
2022/05/11 07:14:27;;;;;;;10.15;5.05;;;20.40;74.40;;;;;;10473060;28;20416;-88
2022/05/11 07:19:27;;;;;;;10.90;5.35;;;20.80;71.40;;;;;;10473128;28;20024;-88
2022/05/11 07:24:30;;;;;;;11.63;5.40;;;21.30;71.00;;;;;;10472445;28;20040;-88
2022/05/11 07:29:31;;;;;;;8.52;5.03;;;21.80;69.90;;;;;;10472081;28;20029;-89
2022/05/11 07:34:33;;;;;;;8.35;5.72;;;22.00;68.40;;;;;;10472400;28;20033;-90
2022/05/11 07:39:34;;;;;;;11.27;5.30;;;21.90;69.10;;;;;;10471345;28;20017;-87
2022/05/11 07:44:35;;;;;;;13.10;5.30;;;21.90;69.50;;;;;;10471303;28;20020;-88
2022/05/11 07:49:36;;;;;;;11.13;5.70;;;22.00;68.30;;;;;;10471993;28;20024;-89
2022/05/11 07:54:38;;;;;;;11.55;5.53;;;22.00;67.70;;;;;;10471475;28;20052;-87
2022/05/11 07:59:56;;;;;;;11.23;5.13;;;22.20;68.30;;;;;;10471330;28;20094;-88
2022/05/11 08:05:00;;;;;;;10.68;5.03;;;22.50;67.50;;;;;;10490397;28;20032;-89
2022/05/11 08:10:01;;;;;;;13.18;4.82;;;22.70;65.80;;;;;;10489211;28;20897;-89
2022/05/11 08:15:02;;;;;;;9.77;4.80;;;22.80;67.00;;;;;;10471496;28;20052;-88
2022/05/11 08:20:08;;;;;;;6.72;4.55;;;23.10;65.50;;;;;;10472576;28;20063;-89
2022/05/11 08:25:14;;;;;;;7.85;5.30;;;23.30;66.00;;;;;;10487794;28;20079;-88
2022/05/11 08:35:36;;;;;;;13.30;6.07;;;23.80;64.40;;;;;;10491880;28;20115;-90
2022/05/11 08:40:43;;;;;;;8.25;5.30;;;24.20;62.70;;;;;;10472023;28;20111;-88
2022/05/11 08:46:21;;;;;;;9.30;5.53;;;24.40;63.30;;;;;;10470575;28;20464;-89
2022/05/11 08:51:30;;;;;;;8.80;4.43;;;24.80;62.20;;;;;;10489705;28;20029;-90
2022/05/11 08:56:32;;;;;;;11.80;6.72;;;24.90;63.10;;;;;;10488464;28;20111;-88
2022/05/11 09:01:55;;;;;;;9.60;5.25;;;25.10;61.20;;;;;;10490340;28;20384;-88
2022/05/11 09:06:57;;;;;;;6.20;4.85;;;25.30;60.70;;;;;;10457963;28;20476;-88
2022/05/11 09:11:57;;;;;;;10.77;6.72;;;25.50;61.00;;;;;;10457790;28;20057;-88
2022/05/11 09:16:58;;;;;;;7.75;5.18;;;25.60;59.60;;;;;;10492068;28;20029;-89
2022/05/11 09:22:05;;;;;;;12.13;7.28;;;25.90;59.80;;;;;;10478536;28;20734;-89
2022/05/11 09:27:10;;;;;;;8.55;5.28;;;25.80;58.60;;;;;;10481023;28;20121;-90
2022/05/11 09:32:24;;;;;;;;;;;25.90;58.60;;;;;;10479681;28;20049;-88
2022/05/11 09:37:34;;;;;;;6.20;3.95;;;26.10;59.60;;;;;;10479392;28;19974;-89
2022/05/11 09:42:35;;;;;;;8.48;5.03;;;26.30;59.30;;;;;;10497028;28;20023;-90
2022/05/11 09:47:36;;;;;;;7.57;4.72;;;26.60;57.60;;;;;;10477323;28;20563;-90
2022/05/11 09:52:37;;;;;;;7.03;4.28;;;26.60;57.70;;;;;;10476260;28;20039;-89
2022/05/11 09:57:39;;;;;;;7.18;4.93;;;26.50;57.80;;;;;;10494979;28;20082;-88
2022/05/11 10:02:46;;;;;;;13.25;5.38;;;26.30;56.90;;;;;;10475783;28;20029;-90
2022/05/11 10:08:08;;;;;;;6.57;5.07;;;26.40;57.80;;;;;;10476329;28;20119;-89
2022/05/11 10:13:52;;;;;;;10.57;7.63;;;26.40;58.00;;;;;;10495414;28;20032;-88
2022/05/11 10:21:50;;;;;;;6.50;4.90;;;26.50;59.10;;;;;;10467389;28;20048;-88
2022/05/11 10:24:51;;;;;;;8.07;4.55;;;26.80;57.70;;;;;;10493558;28;20055;-89
2022/05/11 10:30:16;;;;;;;9.55;4.25;;;26.20;56.70;;;;;;10494156;28;20469;-88
2022/05/11 10:35:54;;;;;;;5.38;4.88;;;26.10;57.90;;;;;;10475163;28;20467;-88
2022/05/11 10:41:27;;;;;;;8.00;4.68;;;26.10;58.50;;;;;;10475948;28;20025;-89
2022/05/11 10:46:36;;;;;;;8.10;4.55;;;25.90;58.40;;;;;;10493858;28;20028;-88
2022/05/11 10:51:58;;;;;;;7.32;4.50;;;25.70;56.80;;;;;;10474944;28;20040;-90
2022/05/11 10:57:09;;;;;;;5.40;4.82;;;25.90;56.10;;;;;;10492698;28;20515;-88
2022/05/11 11:02:38;;;;;;;5.72;4.80;;;26.10;57.10;;;;;;10474030;28;20538;-88
2022/05/11 11:08:06;;;;;;;5.78;4.70;;;25.90;56.60;;;;;;10473619;28;20193;-87
2022/05/11 11:13:09;;;;;;;7.10;4.68;;;25.70;59.20;;;;;;10473291;28;20385;-88
2022/05/11 11:18:16;;;;;;;5.25;4.47;;;26.10;58.50;;;;;;10491564;28;20495;-89
2022/05/11 11:23:17;;;;;;;5.97;4.70;;;26.30;57.80;;;;;;10473070;28;20032;-87
2022/05/11 11:28:23;;;;;;;5.28;4.43;;;26.90;58.30;;;;;;10472706;28;20048;-90
2022/05/11 11:33:26;;;;;;;5.85;4.30;;;26.90;56.60;;;;;;10473013;28;20063;-89
2022/05/11 11:38:39;;;;;;;5.20;4.57;;;26.70;57.90;;;;;;10489588;28;20048;-89
2022/05/11 11:43:49;;;;;;;5.50;4.50;;;26.90;56.20;;;;;;10489994;28;20384;-87
2022/05/11 11:49:18;;;;;;;6.93;4.97;;;26.90;56.10;;;;;;10472578;28;20906;-89
2022/05/11 11:54:38;;;;;;;6.70;4.97;;;26.50;55.30;;;;;;10461029;28;20055;-90
2022/05/11 11:59:49;;;;;;;9.30;5.90;;;26.20;58.00;;;;;;10455940;28;20016;-88
2022/05/11 12:04:55;;;;;;;8.45;4.93;;;26.50;58.10;;;;;;10459208;28;20027;-89
2022/05/11 12:15:34;;;;;;;6.63;4.45;;;26.20;56.70;;;;;;10459559;28;20036;-89
2022/05/11 12:20:44;;;;;;;7.22;4.40;;;26.70;58.90;;;;;;10452533;28;20035;-90
2022/05/11 12:25:58;;;;;;;6.93;4.65;;;27.50;57.30;;;;;;10475932;28;20128;-90
2022/05/11 12:30:59;;;;;;;4.65;3.97;;;27.40;55.10;;;;;;10454473;28;20520;-91
2022/05/11 12:36:01;;;;;;;8.93;4.25;;;27.60;54.10;;;;;;10467258;28;20015;-87
2022/05/11 12:41:10;;;;;;;4.60;3.75;;;27.90;53.40;;;;;;10450542;28;20028;-90
2022/05/11 12:46:18;;;;;;;8.18;4.47;;;27.60;51.50;;;;;;10477338;28;20028;-88
2022/05/11 12:51:34;;;;;;;7.95;4.18;;;27.50;53.10;;;;;;10459480;28;20040;-89
2022/05/11 12:56:39;;;;;;;4.88;3.70;;;27.10;51.50;;;;;;10476390;28;20031;-86
2022/05/11 13:01:40;;;;;;;4.63;3.63;;;26.80;51.70;;;;;;10463696;28;20025;-90
2022/05/11 13:06:49;;;;;;;6.07;3.58;;;26.80;52.30;;;;;;10469037;28;20524;-90
2022/05/11 13:11:53;;;;;;;6.65;4.18;;;27.20;51.70;;;;;;10459889;28;20067;-90
2022/05/11 13:17:00;;;;;;;5.17;4.03;;;26.90;52.20;;;;;;10486310;28;20029;-88
2022/05/11 13:22:05;;;;;;;8.05;4.00;;;26.50;52.20;;;;;;10476460;28;20274;-89
2022/05/11 13:27:39;;;;;;;5.68;3.97;;;26.00;52.60;;;;;;10469744;28;20051;-88
2022/05/11 13:32:42;;;;;;;9.98;3.75;;;25.80;53.60;;;;;;10477141;28;20476;-87
2022/05/11 13:37:58;;;;;;;4.03;3.60;;;25.90;54.70;;;;;;10486382;28;20063;-87
2022/05/11 13:43:13;;;;;;;6.35;3.97;;;26.50;53.20;;;;;;10467509;28;20037;-88
2022/05/11 13:48:26;;;;;;;7.15;4.57;;;26.80;52.30;;;;;;10458044;28;20529;-90
2022/05/11 13:53:33;;;;;;;5.78;4.60;;;26.70;53.50;;;;;;10451595;28;20071;-88
2022/05/11 13:58:43;;;;;;;9.25;4.07;;;26.60;53.50;;;;;;10460841;28;20022;-88
2022/05/11 14:03:53;;;;;;;7.93;3.60;;;26.50;53.90;;;;;;10467057;28;20029;-87
2022/05/11 14:08:54;;;;;;;5.70;4.25;;;26.20;53.30;;;;;;10453352;28;20071;-88
2022/05/11 14:13:54;;;;;;;6.68;4.13;;;25.90;55.00;;;;;;10492516;28;20127;-89
2022/05/11 14:18:56;;;;;;;5.32;3.83;;;25.90;54.50;;;;;;10466651;28;20024;-88
2022/05/11 14:23:57;;;;;;;4.45;4.00;;;25.70;54.10;;;;;;10485678;28;20052;-86
2022/05/11 14:28:57;;;;;;;4.65;3.92;;;25.70;55.60;;;;;;10459502;28;20051;-87
2022/05/11 14:34:00;;;;;;;5.72;4.30;;;26.00;55.90;;;;;;10486348;28;20039;-87
2022/05/11 14:39:00;;;;;;;6.45;4.45;;;26.30;55.90;;;;;;10473259;28;20027;-87
2022/05/11 14:44:01;;;;;;;10.68;4.13;;;26.40;54.40;;;;;;10477020;28;20036;-88
2022/05/11 14:49:02;;;;;;;8.77;4.55;;;26.10;54.10;;;;;;10480313;28;20035;-91
2022/05/11 14:54:04;;;;;;;5.38;4.32;;;25.70;55.60;;;;;;10456969;28;20369;-87
2022/05/11 15:04:43;;;;;;;5.88;4.22;;;25.20;56.20;;;;;;10485417;28;20095;-86
2022/05/11 15:09:43;;;;;;;7.60;4.28;;;25.00;56.40;;;;;;10489699;28;20026;-86
2022/05/11 15:14:45;;;;;;;8.05;3.95;;;25.00;57.90;;;;;;10468679;28;20050;-89
2022/05/11 15:19:46;;;;;;;6.43;4.43;;;25.00;58.00;;;;;;10465172;28;20122;-84
2022/05/11 15:24:47;;;;;;;5.75;3.95;;;24.90;57.10;;;;;;10468635;28;20044;-93
2022/05/11 15:29:47;;;;;;;4.78;4.32;;;24.80;57.20;;;;;;10474475;28;20029;-83
2022/05/11 15:34:49;;;;;;;11.38;4.40;;;24.70;57.40;;;;;;10484665;28;20051;-83
2022/05/11 15:39:50;;;;;;;4.85;3.97;;;24.60;57.90;;;;;;10488412;28;20495;-88
2022/05/11 15:44:53;;;;;;;9.13;4.78;;;24.60;58.70;;;;;;10470905;28;20118;-86
2022/05/11 15:49:53;;;;;;;6.30;4.53;;;24.60;58.80;;;;;;10486274;28;20020;-84
2022/05/11 15:54:55;;;;;;;5.35;4.35;;;24.80;59.50;;;;;;10486595;28;20042;-85
2022/05/11 15:59:56;;;;;;;5.55;4.40;;;24.90;59.00;;;;;;10488558;28;20066;-86
2022/05/11 16:04:57;;;;;;;5.78;4.57;;;24.90;58.50;;;;;;10470351;28;20139;-86
2022/05/11 16:09:58;;;;;;;5.28;4.38;;;24.90;59.90;;;;;;10480405;28;20039;-87
2022/05/11 16:14:58;;;;;;;5.55;4.53;;;24.80;59.00;;;;;;10461386;28;20078;-88
2022/05/11 16:19:59;;;;;;;4.60;3.80;;;24.70;59.00;;;;;;10470472;28;20050;-89
2022/05/11 16:25:00;;;;;;;4.80;4.00;;;24.60;59.50;;;;;;10468184;28;20063;-86
2022/05/11 16:30:02;;;;;;;5.80;4.18;;;24.50;59.00;;;;;;10486789;28;20108;-87
2022/05/11 16:35:03;;;;;;;5.70;3.95;;;24.40;58.70;;;;;;10467606;28;20037;-88
2022/05/11 16:40:06;;;;;;;4.22;3.83;;;24.30;58.60;;;;;;10486477;28;20047;-86
2022/05/11 16:45:10;;;;;;;8.57;5.18;;;24.30;58.50;;;;;;10461274;28;20541;-89
2022/05/11 16:50:11;;;;;;;6.57;4.15;;;24.10;59.10;;;;;;10481329;28;20372;-89
2022/05/11 16:55:12;;;;;;;4.45;3.75;;;24.00;58.90;;;;;;10485444;28;20127;-87
2022/05/11 17:00:14;;;;;;;7.75;3.90;;;23.90;59.30;;;;;;10485796;28;20055;-88
2022/05/11 17:05:15;;;;;;;7.72;3.95;;;23.80;59.00;;;;;;10486009;28;20029;-88
2022/05/11 17:10:17;;;;;;;5.45;4.35;;;23.70;59.60;;;;;;10467754;28;20024;-87
2022/05/11 17:15:18;;;;;;;6.55;4.07;;;23.60;59.30;;;;;;10485391;28;20051;-88
2022/05/11 17:20:19;;;;;;;8.68;4.72;;;23.50;59.80;;;;;;10477981;28;20021;-84
2022/05/11 17:25:20;;;;;;;5.03;3.95;;;23.30;60.20;;;;;;10477680;28;20044;-87
2022/05/11 17:30:21;;;;;;;7.53;4.70;;;23.20;60.30;;;;;;10482080;28;20029;-87
2022/05/11 17:35:21;;;;;;;5.65;4.13;;;23.00;61.30;;;;;;10460916;28;20435;-87
2022/05/11 17:40:22;;;;;;;7.47;4.43;;;22.90;61.00;;;;;;10473268;28;20028;-87
2022/05/11 17:45:24;;;;;;;5.72;4.57;;;22.80;61.10;;;;;;10491974;28;20043;-86
2022/05/11 17:50:25;;;;;;;10.57;5.30;;;22.60;62.80;;;;;;10450072;28;20083;-86
2022/05/11 17:55:26;;;;;;;9.32;4.60;;;22.50;62.20;;;;;;10483575;28;20602;-84
2022/05/11 18:00:30;;;;;;;6.90;4.28;;;22.30;63.00;;;;;;10477207;28;20042;-82
2022/05/11 18:05:30;;;;;;;8.02;4.60;;;22.20;63.70;;;;;;10493613;28;20052;-85
2022/05/11 18:10:31;;;;;;;8.35;4.60;;;22.00;63.90;;;;;;10486500;28;20127;-84
2022/05/11 18:15:32;;;;;;;10.68;5.53;;;21.80;64.70;;;;;;10469278;28;20025;-85
2022/05/11 18:20:37;;;;;;;9.68;5.53;;;21.60;66.00;;;;;;10466665;28;20024;-84
2022/05/11 18:25:38;;;;;;;10.98;5.50;;;21.40;65.90;;;;;;10481910;28;20052;-87
2022/05/11 18:30:42;;;;;;;7.75;5.93;;;21.30;66.80;;;;;;10488575;28;20670;-86
2022/05/11 18:35:43;;;;;;;8.02;5.80;;;21.20;67.00;;;;;;10465373;28;20549;-85
2022/05/11 18:40:44;;;;;;;9.02;5.88;;;21.00;66.70;;;;;;10480096;28;20028;-84
2022/05/11 18:45:45;;;;;;;8.80;6.00;;;20.90;67.20;;;;;;10488460;28;20035;-86
2022/05/11 18:50:46;;;;;;;10.68;5.53;;;20.80;68.60;;;;;;10489291;28;20021;-84
2022/05/11 18:55:47;;;;;;;9.02;5.75;;;20.50;69.50;;;;;;10488456;28;20041;-83
2022/05/11 19:00:47;;;;;;;8.45;5.88;;;20.20;69.60;;;;;;10489081;28;20082;-86
2022/05/11 19:05:48;;;;;;;8.82;6.32;;;20.00;70.10;;;;;;10490497;28;20028;-84
2022/05/11 19:10:55;;;;;;;8.57;5.65;;;19.80;71.20;;;;;;10489155;28;20396;-85
2022/05/11 19:15:56;;;;;;;9.48;6.13;;;19.50;71.90;;;;;;10488448;28;20025;-87
2022/05/11 19:20:56;;;;;;;8.77;6.57;;;19.40;73.10;;;;;;10488730;28;20404;-84
2022/05/11 19:25:59;;;;;;;10.48;6.57;;;19.30;73.20;;;;;;10486292;28;20049;-84
2022/05/11 19:31:06;;;;;;;9.00;6.28;;;19.20;73.80;;;;;;10476838;28;20112;-87
2022/05/11 19:36:09;;;;;;;9.40;6.55;;;19.20;73.50;;;;;;10481347;28;20033;-87
2022/05/11 19:41:13;;;;;;;10.43;6.50;;;19.30;73.10;;;;;;10476290;28;20032;-88
2022/05/11 19:46:14;;;;;;;11.65;6.55;;;19.40;72.50;;;;;;10466055;28;20392;-85
2022/05/11 19:51:15;;;;;;;8.57;6.60;;;19.50;72.40;;;;;;10456814;28;20086;-86
2022/05/11 19:56:16;;;;;;;10.63;7.32;;;19.50;72.70;;;;;;10469042;28;20025;-87
2022/05/11 20:01:17;;;;;;;10.73;7.03;;;19.50;72.00;;;;;;10475144;28;20056;-87
2022/05/11 20:06:20;;;;;;;7.03;5.90;;;19.50;71.80;;;;;;10470789;28;20096;-85
2022/05/11 20:11:24;;;;;;;8.73;5.63;;;19.50;71.60;;;;;;10476251;28;20047;-86
2022/05/11 20:16:24;;;;;;;8.25;5.95;;;19.60;70.80;;;;;;10467601;28;20032;-87
2022/05/11 20:21:25;;;;;;;7.57;5.38;;;19.60;71.00;;;;;;10468698;28;20075;-85
2022/05/11 20:26:26;;;;;;;10.50;5.88;;;19.50;71.00;;;;;;10473012;28;20044;-85
2022/05/11 20:36:48;;;;;;;9.00;5.22;;;19.30;71.20;;;;;;10416871;28;20140;-87
2022/05/11 20:41:49;;;;;;;7.78;5.13;;;19.20;71.30;;;;;;10406438;28;20025;-86
2022/05/11 20:46:50;;;;;;;8.77;6.03;;;19.20;71.80;;;;;;10412321;28;20377;-87
2022/05/11 20:51:50;;;;;;;6.03;4.85;;;19.20;71.80;;;;;;10395081;28;20495;-86
2022/05/11 20:56:54;;;;;;;7.97;5.53;;;19.10;72.80;;;;;;10418567;28;20032;-85
2022/05/11 21:01:54;;;;;;;7.40;5.60;;;18.90;72.90;;;;;;10423232;28;20025;-86
2022/05/11 21:06:55;;;;;;;9.38;6.20;;;18.80;73.90;;;;;;10413024;28;20024;-85
2022/05/11 21:11:56;;;;;;;7.88;5.50;;;18.80;74.10;;;;;;10416844;28;20037;-86
2022/05/11 21:16:56;;;;;;;7.25;5.40;;;18.70;74.90;;;;;;10436312;28;20440;-86
2022/05/11 21:21:57;;;;;;;10.32;6.45;;;18.60;75.20;;;;;;10452018;28;20102;-86
2022/05/11 21:26:58;;;;;;;11.27;6.32;;;18.50;75.70;;;;;;10436341;28;20115;-86
2022/05/11 21:31:58;;;;;;;11.23;6.05;;;18.50;75.60;;;;;;10434780;28;20060;-85
2022/05/11 21:36:59;;;;;;;6.63;5.95;;;18.40;75.90;;;;;;10432042;28;20090;-87
2022/05/11 21:41:59;;;;;;;8.60;6.50;;;18.40;76.20;;;;;;10430199;28;20033;-85
2022/05/11 21:47:00;;;;;;;9.55;6.38;;;18.40;76.50;;;;;;10435932;28;20029;-86
2022/05/11 21:52:01;;;;;;;7.75;6.00;;;18.40;76.50;;;;;;10442177;28;20059;-85
2022/05/11 21:57:01;;;;;;;9.95;6.18;;;18.50;76.70;;;;;;10427339;28;20393;-86
2022/05/11 22:02:02;;;;;;;7.50;6.00;;;18.40;76.80;;;;;;10439647;28;20029;-84
2022/05/11 22:07:03;;;;;;;10.75;6.50;;;18.50;76.90;;;;;;10433136;28;20082;-84
2022/05/11 22:12:04;;;;;;;9.48;6.35;;;18.40;77.50;;;;;;10450508;28;20435;-85
2022/05/11 22:17:05;;;;;;;9.05;6.50;;;18.30;78.00;;;;;;10434831;28;20112;-84
2022/05/11 22:22:05;;;;;;;9.50;6.70;;;18.10;78.40;;;;;;10443109;28;20048;-85
2022/05/11 22:27:06;;;;;;;9.80;6.30;;;18.00;79.20;;;;;;10449134;28;20059;-84
2022/05/11 22:32:07;;;;;;;7.47;6.25;;;17.90;79.10;;;;;;10436262;28;20049;-85
2022/05/11 22:37:08;;;;;;;9.25;7.03;;;17.80;79.00;;;;;;10433303;28;20398;-84
2022/05/11 22:42:09;;;;;;;9.98;6.72;;;17.80;79.80;;;;;;10449044;28;20150;-85
2022/05/11 22:47:09;;;;;;;9.23;7.10;;;17.70;79.70;;;;;;10414900;28;20516;-86
2022/05/11 22:52:10;;;;;;;11.15;7.32;;;17.60;80.20;;;;;;10407789;28;20041;-84
2022/05/11 22:57:10;;;;;;;8.27;6.93;;;17.50;80.60;;;;;;10446217;28;20112;-86
2022/05/11 23:02:11;;;;;;;12.00;6.90;;;17.40;81.10;;;;;;10447762;28;20037;-84
2022/05/11 23:07:12;;;;;;;10.70;7.43;;;17.40;81.10;;;;;;10446162;28;20024;-85
2022/05/11 23:12:12;;;;;;;10.88;7.18;;;17.40;81.20;;;;;;10445774;28;20045;-85
2022/05/11 23:17:13;;;;;;;11.55;7.75;;;17.40;81.50;;;;;;10446068;28;20021;-84
2022/05/11 23:22:14;;;;;;;12.90;6.70;;;17.30;81.50;;;;;;10448815;28;20029;-83
2022/05/11 23:27:15;;;;;;;10.30;7.30;;;17.30;81.60;;;;;;10447235;28;20033;-85
2022/05/11 23:32:15;;;;;;;9.05;6.63;;;17.20;81.50;;;;;;10430158;28;20053;-84
2022/05/11 23:37:17;;;;;;;9.82;6.82;;;17.30;81.60;;;;;;10428992;28;20104;-85
2022/05/11 23:42:18;;;;;;;10.05;6.65;;;17.20;81.50;;;;;;10447732;28;20033;-85
2022/05/11 23:47:19;;;;;;;8.18;6.38;;;17.20;81.50;;;;;;10447787;28;20389;-87
2022/05/11 23:52:19;;;;;;;9.35;6.63;;;17.20;81.50;;;;;;10447571;28;20036;-86
2022/05/11 23:57:20;;;;;;;8.95;6.55;;;17.20;81.40;;;;;;10429253;28;20481;-85
